Torrevieja, Spain
Current Conditions -  °F | °C
As of 10:00 PM on Tuesday 27 Jan 2015 (Local Time) from LELC Reporting Station
Clear Clear  
Wind Chill: 52°   Ceiling: Unl
Heat Index: 52°   Visibility: 6mi
Dew Point: 39°   Wind: 8mph
Humidity: 62%   Direction: 230°SW
Pressure: 30.18"   Gusts: NA
Location:  37.98°N, 0.68°W
Report Text: LELC 272100Z 23007KT CAVOK 11/04 Q1022 NOSIG
Loading
Personal Weather Stations






























Interactive Weather Map New forecast layout! Learn more

10-Day Weather Forecast

Advertisements
Track Severe Weather on mobile